Bookmark and Share
Track history (hours):
 

Ursa Minor

Last reported at 2014-Apr-21 06:33 UTC. Time now 2014-Apr-21 07:29 UTC.
Position N 44°09' E 009°12'.

Length 205 m; draft 9.1 m.

Type: Cargo ship. MMSI: 247082300.

NotesDate/timePositionNaut miles runAvg speedWind from/ knotsBaromVisibWave heightAir tempDewpointWater temp
2014-Apr-21 06:33N 44°09' E 009°12'9 9.4
2014-Apr-21 05:33N 44°02' E 009°21'9 9.5
2014-Apr-21 04:33N 43°55' E 009°30'9 9.4
2014-Apr-21 03:33N 43°48' E 009°39'9 9.1
2014-Apr-21 02:33N 43°41' E 009°47'9 9.3
2014-Apr-21 01:33N 43°34' E 009°55'10 9.6
2014-Apr-21 00:33N 43°27' E 010°03'9 9.5
2014-Apr-20 23:33N 43°18' E 010°10'9 9.4
2014-Apr-20 22:33N 43°10' E 010°16'190 9.1
2014-Apr-20 01:33N 40°57' E 013°19'9 9.2
2014-Apr-20 00:33N 40°51' E 013°29'9 9.2
2014-Apr-19 23:33N 40°45' E 013°38'9 9.1
2014-Apr-19 22:33N 40°39' E 013°47'9 9.1
2014-Apr-19 21:33N 40°33' E 013°56'9 9.0
2014-Apr-19 20:33N 40°28' E 014°05'149 9.3
2014-Apr-19 04:33N 38°19' E 015°43'9 8.6
2014-Apr-19 03:30N 38°11' E 015°37'20 8.5
2014-Apr-19 01:08N 37°53' E 015°48'  
2014-Apr-11 16:09N 40°28' E 014°04'813.3
2014-Apr-11 15:33N 40°33' E 013°56'1313.3
2014-Apr-11 14:33N 40°41' E 013°43'  

Dump ship's entire track history

sailing weather and tide predictions

Ursa Minor — ICGH — position and weather